sensor_id;sensor_type;location;lat;lon;timestamp;P1;durP1;ratioP1;P2;durP2;ratioP2
72037;SDS011;59900;50.788;12.904;2023-08-06T00:01:50;6.60;;;4.00;;
72037;SDS011;59900;50.788;12.904;2023-08-06T00:04:15;8.00;;;4.10;;
72037;SDS011;59900;50.788;12.904;2023-08-06T00:06:40;9.00;;;4.00;;
72037;SDS011;59900;50.788;12.904;2023-08-06T00:09:06;6.87;;;3.87;;
72037;SDS011;59900;50.788;12.904;2023-08-06T00:11:31;8.53;;;3.97;;
72037;SDS011;59900;50.788;12.904;2023-08-06T00:13:56;8.90;;;4.10;;
72037;SDS011;59900;50.788;12.904;2023-08-06T00:16:22;8.77;;;3.87;;
72037;SDS011;59900;50.788;12.904;2023-08-06T00:18:47;6.67;;;4.13;;
72037;SDS011;59900;50.788;12.904;2023-08-06T00:21:12;6.93;;;3.87;;
72037;SDS011;59900;50.788;12.904;2023-08-06T00:23:38;7.95;;;3.78;;
72037;SDS011;59900;50.788;12.904;2023-08-06T00:26:03;7.13;;;3.57;;
72037;SDS011;59900;50.788;12.904;2023-08-06T00:28:28;7.75;;;4.30;;
72037;SDS011;59900;50.788;12.904;2023-08-06T00:30:54;9.50;;;4.33;;
72037;SDS011;59900;50.788;12.904;2023-08-06T00:33:23;10.63;;;4.20;;
72037;SDS011;59900;50.788;12.904;2023-08-06T00:35:49;8.20;;;4.40;;
72037;SDS011;59900;50.788;12.904;2023-08-06T00:38:14;8.30;;;4.27;;
72037;SDS011;59900;50.788;12.904;2023-08-06T00:40:40;7.28;;;4.32;;
72037;SDS011;59900;50.788;12.904;2023-08-06T00:43:05;7.23;;;4.13;;
72037;SDS011;59900;50.788;12.904;2023-08-06T00:45:33;6.63;;;3.90;;
72037;SDS011;59900;50.788;12.904;2023-08-06T00:48:03;6.50;;;4.07;;
72037;SDS011;59900;50.788;12.904;2023-08-06T00:50:34;7.03;;;3.73;;
72037;SDS011;59900;50.788;12.904;2023-08-06T00:53:00;7.60;;;4.00;;
72037;SDS011;59900;50.788;12.904;2023-08-06T00:55:26;8.48;;;4.30;;
72037;SDS011;59900;50.788;12.904;2023-08-06T00:57:52;6.83;;;4.30;;
72037;SDS011;59900;50.788;12.904;2023-08-06T01:00:21;9.70;;;4.45;;
72037;SDS011;59900;50.788;12.904;2023-08-06T01:02:48;8.32;;;4.65;;
72037;SDS011;59900;50.788;12.904;2023-08-06T01:05:14;6.95;;;4.22;;
72037;SDS011;59900;50.788;12.904;2023-08-06T01:10:51;8.95;;;4.25;;
72037;SDS011;59900;50.788;12.904;2023-08-06T01:13:41;8.37;;;4.13;;
72037;SDS011;59900;50.788;12.904;2023-08-06T01:16:07;7.43;;;3.97;;
72037;SDS011;59900;50.788;12.904;2023-08-06T01:18:34;7.60;;;4.43;;
72037;SDS011;59900;50.788;12.904;2023-08-06T01:21:02;7.80;;;3.97;;
72037;SDS011;59900;50.788;12.904;2023-08-06T01:23:27;8.67;;;4.07;;
72037;SDS011;59900;50.788;12.904;2023-08-06T01:28:23;7.38;;;4.60;;
72037;SDS011;59900;50.788;12.904;2023-08-06T01:31:00;7.28;;;4.18;;
72037;SDS011;59900;50.788;12.904;2023-08-06T01:33:29;10.30;;;4.55;;
72037;SDS011;59900;50.788;12.904;2023-08-06T01:35:59;7.60;;;4.03;;
72037;SDS011;59900;50.788;12.904;2023-08-06T01:38:27;7.93;;;4.43;;
72037;SDS011;59900;50.788;12.904;2023-08-06T01:40:53;8.07;;;4.90;;
72037;SDS011;59900;50.788;12.904;2023-08-06T01:43:18;8.48;;;4.78;;
72037;SDS011;59900;50.788;12.904;2023-08-06T01:45:46;8.80;;;5.57;;
72037;SDS011;59900;50.788;12.904;2023-08-06T01:48:14;9.98;;;5.45;;
72037;SDS011;59900;50.788;12.904;2023-08-06T01:50:39;13.27;;;5.40;;
72037;SDS011;59900;50.788;12.904;2023-08-06T01:53:07;10.80;;;5.93;;
72037;SDS011;59900;50.788;12.904;2023-08-06T01:55:36;10.83;;;5.80;;
72037;SDS011;59900;50.788;12.904;2023-08-06T01:58:01;9.93;;;6.00;;
72037;SDS011;59900;50.788;12.904;2023-08-06T02:00:26;9.77;;;5.50;;
72037;SDS011;59900;50.788;12.904;2023-08-06T02:02:53;15.77;;;5.33;;
72037;SDS011;59900;50.788;12.904;2023-08-06T02:05:19;10.00;;;5.57;;
72037;SDS011;59900;50.788;12.904;2023-08-06T02:07:44;8.30;;;5.20;;
72037;SDS011;59900;50.788;12.904;2023-08-06T02:10:12;9.63;;;5.87;;
72037;SDS011;59900;50.788;12.904;2023-08-06T02:12:37;13.65;;;5.85;;
72037;SDS011;59900;50.788;12.904;2023-08-06T02:15:03;12.37;;;7.43;;
72037;SDS011;59900;50.788;12.904;2023-08-06T02:17:34;13.13;;;7.63;;
72037;SDS011;59900;50.788;12.904;2023-08-06T02:20:00;12.63;;;7.63;;
72037;SDS011;59900;50.788;12.904;2023-08-06T02:22:28;12.68;;;7.60;;
72037;SDS011;59900;50.788;12.904;2023-08-06T02:24:54;11.82;;;6.20;;
72037;SDS011;59900;50.788;12.904;2023-08-06T02:27:19;10.00;;;6.17;;
72037;SDS011;59900;50.788;12.904;2023-08-06T02:29:44;9.00;;;5.50;;
72037;SDS011;59900;50.788;12.904;2023-08-06T02:32:10;8.43;;;5.37;;
72037;SDS011;59900;50.788;12.904;2023-08-06T02:34:35;9.60;;;5.53;;
72037;SDS011;59900;50.788;12.904;2023-08-06T02:37:03;10.47;;;5.30;;
72037;SDS011;59900;50.788;12.904;2023-08-06T02:39:28;10.17;;;5.70;;
72037;SDS011;59900;50.788;12.904;2023-08-06T02:41:54;9.00;;;6.00;;
72037;SDS011;59900;50.788;12.904;2023-08-06T02:44:19;10.70;;;5.80;;
72037;SDS011;59900;50.788;12.904;2023-08-06T02:46:47;10.30;;;5.50;;
72037;SDS011;59900;50.788;12.904;2023-08-06T02:49:15;10.53;;;5.67;;
72037;SDS011;59900;50.788;12.904;2023-08-06T02:51:44;10.63;;;6.32;;
72037;SDS011;59900;50.788;12.904;2023-08-06T02:54:12;12.88;;;5.97;;
72037;SDS011;59900;50.788;12.904;2023-08-06T02:56:37;10.50;;;5.30;;
72037;SDS011;59900;50.788;12.904;2023-08-06T02:59:03;11.23;;;6.10;;
72037;SDS011;59900;50.788;12.904;2023-08-06T03:01:31;8.23;;;5.47;;
72037;SDS011;59900;50.788;12.904;2023-08-06T03:03:56;11.40;;;5.65;;
72037;SDS011;59900;50.788;12.904;2023-08-06T03:06:22;11.10;;;5.80;;
72037;SDS011;59900;50.788;12.904;2023-08-06T03:08:47;13.47;;;5.40;;
72037;SDS011;59900;50.788;12.904;2023-08-06T03:11:14;8.93;;;4.60;;
72037;SDS011;59900;50.788;12.904;2023-08-06T03:13:40;11.15;;;5.20;;
72037;SDS011;59900;50.788;12.904;2023-08-06T03:16:05;12.07;;;5.20;;
72037;SDS011;59900;50.788;12.904;2023-08-06T03:18:30;8.67;;;4.93;;
72037;SDS011;59900;50.788;12.904;2023-08-06T03:20:55;10.03;;;5.20;;
72037;SDS011;59900;50.788;12.904;2023-08-06T03:23:21;11.77;;;5.53;;
72037;SDS011;59900;50.788;12.904;2023-08-06T03:25:47;9.33;;;5.43;;
72037;SDS011;59900;50.788;12.904;2023-08-06T03:28:12;10.80;;;5.55;;
72037;SDS011;59900;50.788;12.904;2023-08-06T03:30:38;11.57;;;5.40;;
72037;SDS011;59900;50.788;12.904;2023-08-06T03:33:03;12.90;;;5.17;;
72037;SDS011;59900;50.788;12.904;2023-08-06T03:35:31;7.97;;;5.17;;
72037;SDS011;59900;50.788;12.904;2023-08-06T03:37:59;10.77;;;5.63;;
72037;SDS011;59900;50.788;12.904;2023-08-06T03:40:24;12.13;;;5.57;;
72037;SDS011;59900;50.788;12.904;2023-08-06T03:42:50;11.67;;;5.27;;
72037;SDS011;59900;50.788;12.904;2023-08-06T03:45:18;11.35;;;5.43;;
72037;SDS011;59900;50.788;12.904;2023-08-06T03:47:43;9.23;;;4.50;;
72037;SDS011;59900;50.788;12.904;2023-08-06T03:50:08;8.17;;;4.90;;
72037;SDS011;59900;50.788;12.904;2023-08-06T03:52:34;9.98;;;4.65;;
72037;SDS011;59900;50.788;12.904;2023-08-06T03:55:02;11.57;;;4.80;;
72037;SDS011;59900;50.788;12.904;2023-08-06T03:57:33;8.65;;;5.05;;
72037;SDS011;59900;50.788;12.904;2023-08-06T04:00:05;11.95;;;5.18;;
72037;SDS011;59900;50.788;12.904;2023-08-06T04:02:32;10.10;;;5.05;;
72037;SDS011;59900;50.788;12.904;2023-08-06T04:04:57;7.73;;;4.63;;
72037;SDS011;59900;50.788;12.904;2023-08-06T04:07:24;10.80;;;4.35;;
72037;SDS011;59900;50.788;12.904;2023-08-06T04:09:53;9.23;;;4.40;;
72037;SDS011;59900;50.788;12.904;2023-08-06T04:12:23;8.33;;;4.47;;
72037;SDS011;59900;50.788;12.904;2023-08-06T04:14:49;7.38;;;4.38;;
72037;SDS011;59900;50.788;12.904;2023-08-06T04:17:21;7.67;;;4.83;;
72037;SDS011;59900;50.788;12.904;2023-08-06T04:19:53;8.38;;;4.90;;
72037;SDS011;59900;50.788;12.904;2023-08-06T04:22:23;8.85;;;4.00;;
72037;SDS011;59900;50.788;12.904;2023-08-06T04:24:49;8.02;;;4.80;;
72037;SDS011;59900;50.788;12.904;2023-08-06T04:27:15;9.47;;;4.80;;
72037;SDS011;59900;50.788;12.904;2023-08-06T04:29:41;8.38;;;4.90;;
72037;SDS011;59900;50.788;12.904;2023-08-06T04:32:08;8.77;;;5.50;;
72037;SDS011;59900;50.788;12.904;2023-08-06T04:34:34;8.57;;;5.45;;
72037;SDS011;59900;50.788;12.904;2023-08-06T04:37:03;9.13;;;5.03;;
72037;SDS011;59900;50.788;12.904;2023-08-06T04:39:32;8.23;;;5.07;;
72037;SDS011;59900;50.788;12.904;2023-08-06T04:41:57;9.60;;;4.80;;
72037;SDS011;59900;50.788;12.904;2023-08-06T04:44:23;7.70;;;4.70;;
72037;SDS011;59900;50.788;12.904;2023-08-06T04:46:48;9.27;;;5.07;;
72037;SDS011;59900;50.788;12.904;2023-08-06T04:49:14;7.65;;;4.40;;
72037;SDS011;59900;50.788;12.904;2023-08-06T04:51:40;8.33;;;4.13;;
72037;SDS011;59900;50.788;12.904;2023-08-06T04:54:05;6.43;;;3.57;;
72037;SDS011;59900;50.788;12.904;2023-08-06T04:56:30;6.10;;;3.70;;
72037;SDS011;59900;50.788;12.904;2023-08-06T04:58:57;6.78;;;3.30;;
72037;SDS011;59900;50.788;12.904;2023-08-06T05:01:22;6.87;;;3.20;;
72037;SDS011;59900;50.788;12.904;2023-08-06T05:03:47;6.67;;;2.80;;
72037;SDS011;59900;50.788;12.904;2023-08-06T05:06:13;6.47;;;3.30;;
72037;SDS011;59900;50.788;12.904;2023-08-06T05:08:38;7.22;;;3.15;;
72037;SDS011;59900;50.788;12.904;2023-08-06T05:11:06;5.60;;;2.80;;
72037;SDS011;59900;50.788;12.904;2023-08-06T05:13:33;6.20;;;3.08;;
72037;SDS011;59900;50.788;12.904;2023-08-06T05:15:59;5.93;;;2.87;;
72037;SDS011;59900;50.788;12.904;2023-08-06T05:18:24;5.70;;;2.63;;
72037;SDS011;59900;50.788;12.904;2023-08-06T05:20:49;5.20;;;2.50;;
72037;SDS011;59900;50.788;12.904;2023-08-06T05:23:14;4.83;;;2.67;;
72037;SDS011;59900;50.788;12.904;2023-08-06T05:25:40;5.13;;;2.20;;
72037;SDS011;59900;50.788;12.904;2023-08-06T05:28:05;4.40;;;2.30;;
72037;SDS011;59900;50.788;12.904;2023-08-06T05:30:31;4.13;;;2.20;;
72037;SDS011;59900;50.788;12.904;2023-08-06T05:32:56;5.27;;;2.43;;
72037;SDS011;59900;50.788;12.904;2023-08-06T05:35:22;5.03;;;2.58;;
72037;SDS011;59900;50.788;12.904;2023-08-06T05:37:47;6.40;;;2.90;;
72037;SDS011;59900;50.788;12.904;2023-08-06T05:40:13;5.10;;;2.80;;
72037;SDS011;59900;50.788;12.904;2023-08-06T05:42:41;4.70;;;2.90;;
72037;SDS011;59900;50.788;12.904;2023-08-06T05:45:07;6.05;;;2.92;;
72037;SDS011;59900;50.788;12.904;2023-08-06T05:47:32;5.88;;;2.92;;
72037;SDS011;59900;50.788;12.904;2023-08-06T05:49:58;5.53;;;3.17;;
72037;SDS011;59900;50.788;12.904;2023-08-06T05:52:23;7.17;;;2.30;;
72037;SDS011;59900;50.788;12.904;2023-08-06T05:54:48;6.07;;;2.80;;
72037;SDS011;59900;50.788;12.904;2023-08-06T05:57:13;5.00;;;2.80;;
72037;SDS011;59900;50.788;12.904;2023-08-06T05:59:40;7.50;;;3.27;;
72037;SDS011;59900;50.788;12.904;2023-08-06T06:02:05;6.15;;;3.33;;
72037;SDS011;59900;50.788;12.904;2023-08-06T06:04:30;5.80;;;3.40;;
72037;SDS011;59900;50.788;12.904;2023-08-06T06:06:56;5.57;;;3.00;;
72037;SDS011;59900;50.788;12.904;2023-08-06T06:09:24;7.53;;;3.40;;
72037;SDS011;59900;50.788;12.904;2023-08-06T06:11:49;5.40;;;3.30;;
72037;SDS011;59900;50.788;12.904;2023-08-06T06:14:18;8.90;;;3.70;;
72037;SDS011;59900;50.788;12.904;2023-08-06T06:16:44;5.85;;;3.15;;
72037;SDS011;59900;50.788;12.904;2023-08-06T06:19:10;8.87;;;2.80;;
72037;SDS011;59900;50.788;12.904;2023-08-06T06:21:36;8.07;;;3.03;;
72037;SDS011;59900;50.788;12.904;2023-08-06T06:24:02;5.47;;;3.20;;
72037;SDS011;59900;50.788;12.904;2023-08-06T06:26:30;5.82;;;3.20;;
72037;SDS011;59900;50.788;12.904;2023-08-06T06:28:55;7.43;;;3.50;;
72037;SDS011;59900;50.788;12.904;2023-08-06T06:31:20;6.73;;;3.67;;
72037;SDS011;59900;50.788;12.904;2023-08-06T06:33:45;5.70;;;3.10;;
72037;SDS011;59900;50.788;12.904;2023-08-06T06:36:11;7.37;;;3.07;;
72037;SDS011;59900;50.788;12.904;2023-08-06T06:38:36;6.10;;;3.27;;
72037;SDS011;59900;50.788;12.904;2023-08-06T06:41:02;9.70;;;3.20;;
72037;SDS011;59900;50.788;12.904;2023-08-06T06:43:28;6.90;;;3.50;;
72037;SDS011;59900;50.788;12.904;2023-08-06T06:45:55;5.87;;;3.10;;
72037;SDS011;59900;50.788;12.904;2023-08-06T06:48:28;7.10;;;3.40;;
72037;SDS011;59900;50.788;12.904;2023-08-06T06:50:54;8.95;;;3.20;;
72037;SDS011;59900;50.788;12.904;2023-08-06T06:53:19;7.47;;;3.73;;
72037;SDS011;59900;50.788;12.904;2023-08-06T06:55:45;5.72;;;3.10;;
72037;SDS011;59900;50.788;12.904;2023-08-06T06:58:13;7.50;;;3.83;;
72037;SDS011;59900;50.788;12.904;2023-08-06T07:00:39;6.17;;;3.33;;
72037;SDS011;59900;50.788;12.904;2023-08-06T07:03:04;9.27;;;3.77;;
72037;SDS011;59900;50.788;12.904;2023-08-06T07:05:29;5.87;;;3.43;;
72037;SDS011;59900;50.788;12.904;2023-08-06T07:07:55;5.70;;;3.50;;
72037;SDS011;59900;50.788;12.904;2023-08-06T07:10:20;5.93;;;3.13;;
72037;SDS011;59900;50.788;12.904;2023-08-06T07:12:45;5.87;;;3.40;;
72037;SDS011;59900;50.788;12.904;2023-08-06T07:15:11;6.73;;;3.43;;
72037;SDS011;59900;50.788;12.904;2023-08-06T07:17:36;5.72;;;3.00;;
72037;SDS011;59900;50.788;12.904;2023-08-06T07:20:02;5.93;;;3.20;;
72037;SDS011;59900;50.788;12.904;2023-08-06T07:22:30;6.93;;;3.47;;
72037;SDS011;59900;50.788;12.904;2023-08-06T07:24:56;7.35;;;3.60;;
72037;SDS011;59900;50.788;12.904;2023-08-06T07:27:21;6.37;;;3.00;;
72037;SDS011;59900;50.788;12.904;2023-08-06T07:29:46;6.53;;;3.10;;
72037;SDS011;59900;50.788;12.904;2023-08-06T07:32:13;6.85;;;3.15;;
72037;SDS011;59900;50.788;12.904;2023-08-06T07:34:38;7.33;;;3.40;;
72037;SDS011;59900;50.788;12.904;2023-08-06T07:37:04;8.07;;;3.03;;
72037;SDS011;59900;50.788;12.904;2023-08-06T07:39:29;6.47;;;3.70;;
72037;SDS011;59900;50.788;12.904;2023-08-06T07:41:54;6.80;;;3.80;;
72037;SDS011;59900;50.788;12.904;2023-08-06T07:44:20;6.53;;;3.67;;
72037;SDS011;59900;50.788;12.904;2023-08-06T07:46:45;6.13;;;3.90;;
72037;SDS011;59900;50.788;12.904;2023-08-06T07:49:10;7.13;;;3.37;;
72037;SDS011;59900;50.788;12.904;2023-08-06T07:51:36;6.13;;;3.40;;
72037;SDS011;59900;50.788;12.904;2023-08-06T07:54:01;5.77;;;3.20;;
72037;SDS011;59900;50.788;12.904;2023-08-06T07:56:26;6.23;;;3.57;;
72037;SDS011;59900;50.788;12.904;2023-08-06T07:58:52;5.80;;;3.33;;
72037;SDS011;59900;50.788;12.904;2023-08-06T08:01:17;7.53;;;3.83;;
72037;SDS011;59900;50.788;12.904;2023-08-06T08:03:42;6.83;;;3.20;;
72037;SDS011;59900;50.788;12.904;2023-08-06T08:06:08;6.10;;;3.50;;
72037;SDS011;59900;50.788;12.904;2023-08-06T08:08:33;6.73;;;3.90;;
72037;SDS011;59900;50.788;12.904;2023-08-06T08:11:02;6.90;;;3.17;;
72037;SDS011;59900;50.788;12.904;2023-08-06T08:13:28;6.10;;;3.10;;
72037;SDS011;59900;50.788;12.904;2023-08-06T08:15:56;5.87;;;3.30;;
72037;SDS011;59900;50.788;12.904;2023-08-06T08:18:25;5.60;;;3.40;;
72037;SDS011;59900;50.788;12.904;2023-08-06T08:20:51;5.87;;;3.40;;
72037;SDS011;59900;50.788;12.904;2023-08-06T08:23:16;5.63;;;3.10;;
72037;SDS011;59900;50.788;12.904;2023-08-06T08:25:41;6.70;;;3.23;;
72037;SDS011;59900;50.788;12.904;2023-08-06T08:28:07;5.57;;;3.23;;
72037;SDS011;59900;50.788;12.904;2023-08-06T08:30:32;5.73;;;2.90;;
72037;SDS011;59900;50.788;12.904;2023-08-06T08:32:58;7.43;;;3.13;;
72037;SDS011;59900;50.788;12.904;2023-08-06T08:35:23;5.43;;;2.97;;
72037;SDS011;59900;50.788;12.904;2023-08-06T08:37:48;5.30;;;3.00;;
72037;SDS011;59900;50.788;12.904;2023-08-06T08:40:14;5.77;;;2.87;;
72037;SDS011;59900;50.788;12.904;2023-08-06T08:42:40;5.30;;;3.10;;
72037;SDS011;59900;50.788;12.904;2023-08-06T08:45:06;6.30;;;2.60;;
72037;SDS011;59900;50.788;12.904;2023-08-06T08:47:38;5.57;;;2.70;;
72037;SDS011;59900;50.788;12.904;2023-08-06T08:50:06;5.63;;;3.05;;
72037;SDS011;59900;50.788;12.904;2023-08-06T08:52:33;5.60;;;3.10;;
72037;SDS011;59900;50.788;12.904;2023-08-06T08:54:59;5.57;;;3.00;;
72037;SDS011;59900;50.788;12.904;2023-08-06T08:57:26;5.65;;;3.08;;
72037;SDS011;59900;50.788;12.904;2023-08-06T08:59:51;5.33;;;2.60;;
72037;SDS011;59900;50.788;12.904;2023-08-06T09:02:17;7.60;;;2.70;;
72037;SDS011;59900;50.788;12.904;2023-08-06T09:04:45;5.80;;;3.00;;
72037;SDS011;59900;50.788;12.904;2023-08-06T09:07:13;5.45;;;2.92;;
72037;SDS011;59900;50.788;12.904;2023-08-06T09:09:42;4.90;;;2.73;;
72037;SDS011;59900;50.788;12.904;2023-08-06T09:12:15;4.80;;;2.80;;
72037;SDS011;59900;50.788;12.904;2023-08-06T09:14:41;5.18;;;2.70;;
72037;SDS011;59900;50.788;12.904;2023-08-06T09:17:07;7.53;;;2.92;;
72037;SDS011;59900;50.788;12.904;2023-08-06T09:19:35;6.93;;;2.83;;
72037;SDS011;59900;50.788;12.904;2023-08-06T09:22:01;5.03;;;2.60;;
72037;SDS011;59900;50.788;12.904;2023-08-06T09:24:26;4.77;;;2.80;;
72037;SDS011;59900;50.788;12.904;2023-08-06T09:26:52;5.65;;;2.85;;
72037;SDS011;59900;50.788;12.904;2023-08-06T09:29:18;4.80;;;2.67;;
72037;SDS011;59900;50.788;12.904;2023-08-06T09:31:44;5.40;;;2.60;;
72037;SDS011;59900;50.788;12.904;2023-08-06T09:34:17;4.47;;;2.40;;
72037;SDS011;59900;50.788;12.904;2023-08-06T09:36:50;5.35;;;2.33;;
72037;SDS011;59900;50.788;12.904;2023-08-06T09:39:17;5.78;;;2.72;;
72037;SDS011;59900;50.788;12.904;2023-08-06T09:41:44;5.17;;;2.70;;
72037;SDS011;59900;50.788;12.904;2023-08-06T09:44:15;4.90;;;2.50;;
72037;SDS011;59900;50.788;12.904;2023-08-06T09:46:41;6.07;;;2.97;;
72037;SDS011;59900;50.788;12.904;2023-08-06T09:49:07;6.03;;;2.50;;
72037;SDS011;59900;50.788;12.904;2023-08-06T09:51:33;3.83;;;2.20;;
72037;SDS011;59900;50.788;12.904;2023-08-06T09:54:00;5.13;;;2.50;;
72037;SDS011;59900;50.788;12.904;2023-08-06T09:56:25;6.00;;;2.83;;
72037;SDS011;59900;50.788;12.904;2023-08-06T09:58:51;4.80;;;2.73;;
72037;SDS011;59900;50.788;12.904;2023-08-06T10:01:18;4.80;;;2.58;;
72037;SDS011;59900;50.788;12.904;2023-08-06T10:03:44;5.10;;;2.50;;
72037;SDS011;59900;50.788;12.904;2023-08-06T10:06:12;4.82;;;2.60;;
72037;SDS011;59900;50.788;12.904;2023-08-06T10:08:38;4.87;;;2.57;;
72037;SDS011;59900;50.788;12.904;2023-08-06T10:11:04;4.70;;;2.70;;
72037;SDS011;59900;50.788;12.904;2023-08-06T10:13:30;5.15;;;2.70;;
72037;SDS011;59900;50.788;12.904;2023-08-06T10:15:57;7.00;;;2.38;;
72037;SDS011;59900;50.788;12.904;2023-08-06T10:18:22;4.53;;;2.70;;
72037;SDS011;59900;50.788;12.904;2023-08-06T10:20:51;4.87;;;2.43;;
72037;SDS011;59900;50.788;12.904;2023-08-06T10:23:16;5.25;;;2.42;;
72037;SDS011;59900;50.788;12.904;2023-08-06T10:25:45;4.50;;;2.30;;
72037;SDS011;59900;50.788;12.904;2023-08-06T10:28:21;5.15;;;2.30;;
72037;SDS011;59900;50.788;12.904;2023-08-06T10:30:47;4.83;;;2.20;;
72037;SDS011;59900;50.788;12.904;2023-08-06T10:33:13;4.50;;;2.17;;
72037;SDS011;59900;50.788;12.904;2023-08-06T10:38:10;4.57;;;2.40;;
72037;SDS011;59900;50.788;12.904;2023-08-06T10:45:52;5.03;;;2.47;;
72037;SDS011;59900;50.788;12.904;2023-08-06T10:51:11;5.35;;;2.78;;
72037;SDS011;59900;50.788;12.904;2023-08-06T10:53:41;6.10;;;2.90;;
72037;SDS011;59900;50.788;12.904;2023-08-06T10:56:15;5.47;;;2.40;;
72037;SDS011;59900;50.788;12.904;2023-08-06T10:58:46;5.35;;;2.53;;
72037;SDS011;59900;50.788;12.904;2023-08-06T11:01:12;5.30;;;2.58;;
72037;SDS011;59900;50.788;12.904;2023-08-06T11:03:39;5.28;;;2.40;;
72037;SDS011;59900;50.788;12.904;2023-08-06T11:06:09;6.25;;;2.60;;
72037;SDS011;59900;50.788;12.904;2023-08-06T11:08:36;5.57;;;2.43;;
72037;SDS011;59900;50.788;12.904;2023-08-06T11:11:09;5.28;;;2.88;;
72037;SDS011;59900;50.788;12.904;2023-08-06T11:13:38;6.60;;;2.95;;
72037;SDS011;59900;50.788;12.904;2023-08-06T11:16:04;6.07;;;2.38;;
72037;SDS011;59900;50.788;12.904;2023-08-06T11:18:31;5.18;;;2.60;;
72037;SDS011;59900;50.788;12.904;2023-08-06T11:21:00;4.60;;;2.07;;
72037;SDS011;59900;50.788;12.904;2023-08-06T11:23:27;4.38;;;2.28;;
72037;SDS011;59900;50.788;12.904;2023-08-06T11:25:53;4.93;;;2.72;;
72037;SDS011;59900;50.788;12.904;2023-08-06T11:28:19;4.70;;;2.73;;
72037;SDS011;59900;50.788;12.904;2023-08-06T11:30:46;4.82;;;2.33;;
72037;SDS011;59900;50.788;12.904;2023-08-06T11:33:12;5.43;;;2.80;;
72037;SDS011;59900;50.788;12.904;2023-08-06T11:35:37;5.00;;;2.73;;
72037;SDS011;59900;50.788;12.904;2023-08-06T11:38:03;6.17;;;3.20;;
72037;SDS011;59900;50.788;12.904;2023-08-06T11:40:28;7.07;;;3.20;;
72037;SDS011;59900;50.788;12.904;2023-08-06T11:42:53;5.53;;;2.40;;
72037;SDS011;59900;50.788;12.904;2023-08-06T11:45:22;5.85;;;2.53;;
72037;SDS011;59900;50.788;12.904;2023-08-06T11:47:49;4.80;;;2.70;;
72037;SDS011;59900;50.788;12.904;2023-08-06T11:50:27;6.30;;;2.50;;
72037;SDS011;59900;50.788;12.904;2023-08-06T11:52:56;4.40;;;2.35;;
72037;SDS011;59900;50.788;12.904;2023-08-06T11:55:23;4.75;;;2.60;;
72037;SDS011;59900;50.788;12.904;2023-08-06T11:57:49;5.10;;;2.47;;
72037;SDS011;59900;50.788;12.904;2023-08-06T12:00:15;6.40;;;3.20;;
72037;SDS011;59900;50.788;12.904;2023-08-06T12:02:43;4.28;;;2.30;;
72037;SDS011;59900;50.788;12.904;2023-08-06T12:05:17;4.43;;;2.17;;
72037;SDS011;59900;50.788;12.904;2023-08-06T12:07:50;4.43;;;1.80;;
72037;SDS011;59900;50.788;12.904;2023-08-06T12:10:17;4.35;;;2.50;;
72037;SDS011;59900;50.788;12.904;2023-08-06T12:12:44;5.80;;;2.40;;
72037;SDS011;59900;50.788;12.904;2023-08-06T12:15:10;5.10;;;2.40;;
72037;SDS011;59900;50.788;12.904;2023-08-06T12:17:35;4.53;;;2.30;;
72037;SDS011;59900;50.788;12.904;2023-08-06T12:20:02;3.90;;;1.93;;
72037;SDS011;59900;50.788;12.904;2023-08-06T12:22:31;5.40;;;2.35;;
72037;SDS011;59900;50.788;12.904;2023-08-06T12:25:04;4.55;;;2.05;;
72037;SDS011;59900;50.788;12.904;2023-08-06T12:27:37;4.20;;;2.28;;
72037;SDS011;59900;50.788;12.904;2023-08-06T12:30:06;5.40;;;2.22;;
72037;SDS011;59900;50.788;12.904;2023-08-06T12:32:33;4.80;;;2.10;;
72037;SDS011;59900;50.788;12.904;2023-08-06T12:34:59;4.32;;;2.17;;
72037;SDS011;59900;50.788;12.904;2023-08-06T12:37:25;5.13;;;2.25;;
72037;SDS011;59900;50.788;12.904;2023-08-06T12:39:51;4.13;;;2.07;;
72037;SDS011;59900;50.788;12.904;2023-08-06T12:42:16;4.10;;;2.27;;
72037;SDS011;59900;50.788;12.904;2023-08-06T12:44:42;5.45;;;2.25;;
72037;SDS011;59900;50.788;12.904;2023-08-06T12:47:07;5.20;;;2.27;;
72037;SDS011;59900;50.788;12.904;2023-08-06T12:49:32;3.90;;;2.13;;
72037;SDS011;59900;50.788;12.904;2023-08-06T12:51:58;4.10;;;2.40;;
72037;SDS011;59900;50.788;12.904;2023-08-06T12:54:24;4.10;;;2.33;;
72037;SDS011;59900;50.788;12.904;2023-08-06T12:56:50;4.90;;;2.03;;
72037;SDS011;59900;50.788;12.904;2023-08-06T12:59:16;4.57;;;2.43;;
72037;SDS011;59900;50.788;12.904;2023-08-06T13:01:43;4.50;;;2.10;;
72037;SDS011;59900;50.788;12.904;2023-08-06T13:04:09;5.43;;;1.92;;
72037;SDS011;59900;50.788;12.904;2023-08-06T13:06:35;5.00;;;2.00;;
72037;SDS011;59900;50.788;12.904;2023-08-06T13:09:05;3.30;;;1.87;;
72037;SDS011;59900;50.788;12.904;2023-08-06T13:11:31;5.38;;;1.90;;
72037;SDS011;59900;50.788;12.904;2023-08-06T13:14:04;4.40;;;2.08;;
72037;SDS011;59900;50.788;12.904;2023-08-06T13:16:31;3.97;;;2.03;;
72037;SDS011;59900;50.788;12.904;2023-08-06T13:18:56;4.50;;;2.10;;
72037;SDS011;59900;50.788;12.904;2023-08-06T13:21:21;4.27;;;2.07;;
72037;SDS011;59900;50.788;12.904;2023-08-06T13:23:46;3.90;;;2.03;;
72037;SDS011;59900;50.788;12.904;2023-08-06T13:26:12;4.45;;;2.03;;
72037;SDS011;59900;50.788;12.904;2023-08-06T13:28:38;4.43;;;1.87;;
72037;SDS011;59900;50.788;12.904;2023-08-06T13:31:03;4.70;;;1.97;;
72037;SDS011;59900;50.788;12.904;2023-08-06T13:33:29;4.60;;;1.90;;
72037;SDS011;59900;50.788;12.904;2023-08-06T13:35:54;5.50;;;2.00;;
72037;SDS011;59900;50.788;12.904;2023-08-06T13:38:19;4.57;;;1.97;;
72037;SDS011;59900;50.788;12.904;2023-08-06T13:40:44;4.53;;;2.50;;
72037;SDS011;59900;50.788;12.904;2023-08-06T13:43:11;3.88;;;2.03;;
72037;SDS011;59900;50.788;12.904;2023-08-06T13:45:36;4.13;;;2.00;;
72037;SDS011;59900;50.788;12.904;2023-08-06T13:48:03;5.25;;;2.00;;
72037;SDS011;59900;50.788;12.904;2023-08-06T13:50:31;3.97;;;2.03;;
72037;SDS011;59900;50.788;12.904;2023-08-06T13:52:56;6.23;;;3.73;;
72037;SDS011;59900;50.788;12.904;2023-08-06T13:55:22;5.17;;;1.80;;
72037;SDS011;59900;50.788;12.904;2023-08-06T13:57:47;4.10;;;1.97;;
72037;SDS011;59900;50.788;12.904;2023-08-06T14:00:13;4.60;;;2.40;;
72037;SDS011;59900;50.788;12.904;2023-08-06T14:02:38;3.50;;;1.85;;
72037;SDS011;59900;50.788;12.904;2023-08-06T14:05:03;4.23;;;1.77;;
72037;SDS011;59900;50.788;12.904;2023-08-06T14:07:29;4.73;;;1.80;;
72037;SDS011;59900;50.788;12.904;2023-08-06T14:09:54;3.70;;;1.80;;
72037;SDS011;59900;50.788;12.904;2023-08-06T14:12:22;5.40;;;2.00;;
72037;SDS011;59900;50.788;12.904;2023-08-06T14:14:47;4.20;;;1.77;;
72037;SDS011;59900;50.788;12.904;2023-08-06T14:17:12;5.40;;;2.20;;
72037;SDS011;59900;50.788;12.904;2023-08-06T14:19:38;3.40;;;1.80;;
72037;SDS011;59900;50.788;12.904;2023-08-06T14:22:03;4.60;;;2.07;;
72037;SDS011;59900;50.788;12.904;2023-08-06T14:24:28;3.63;;;1.70;;
72037;SDS011;59900;50.788;12.904;2023-08-06T14:26:53;4.47;;;2.00;;
72037;SDS011;59900;50.788;12.904;2023-08-06T14:29:19;3.53;;;1.90;;
72037;SDS011;59900;50.788;12.904;2023-08-06T14:31:44;3.57;;;1.73;;
72037;SDS011;59900;50.788;12.904;2023-08-06T14:34:10;3.50;;;1.70;;
72037;SDS011;59900;50.788;12.904;2023-08-06T14:36:35;3.08;;;1.70;;
72037;SDS011;59900;50.788;12.904;2023-08-06T14:39:00;3.30;;;1.63;;
72037;SDS011;59900;50.788;12.904;2023-08-06T14:41:28;6.47;;;3.17;;
72037;SDS011;59900;50.788;12.904;2023-08-06T14:43:54;4.03;;;2.13;;
72037;SDS011;59900;50.788;12.904;2023-08-06T14:46:19;3.47;;;1.80;;